createdAt,value
2023-04-16T00:01:47.721Z,90.50
2023-04-16T00:04:14.559Z,90.40
2023-04-16T00:06:41.268Z,90.70
2023-04-16T00:09:08.162Z,90.70
2023-04-16T00:11:34.927Z,91.00
2023-04-16T00:14:01.692Z,90.80
2023-04-16T00:16:28.513Z,91.00
2023-04-16T00:18:55.108Z,91.20
2023-04-16T00:21:21.792Z,91.10
2023-04-16T00:23:48.451Z,91.10
2023-04-16T00:26:15.099Z,91.50
2023-04-16T00:28:41.765Z,91.60
2023-04-16T00:31:08.438Z,91.70
2023-04-16T00:33:35.130Z,91.60
2023-04-16T00:36:02.053Z,91.70
2023-04-16T00:38:30.417Z,91.70
2023-04-16T00:40:59.948Z,91.60
2023-04-16T00:43:27.217Z,91.50
2023-04-16T00:45:56.658Z,91.70
2023-04-16T00:48:24.777Z,91.40
2023-04-16T00:50:51.527Z,91.80
2023-04-16T00:53:18.313Z,91.70
2023-04-16T00:55:45.955Z,91.40
2023-04-16T00:58:12.784Z,91.30
2023-04-16T01:00:39.436Z,91.50
2023-04-16T01:03:06.322Z,92.10
2023-04-16T01:05:33.313Z,92.10
2023-04-16T01:08:01.191Z,92.00
2023-04-16T01:10:27.875Z,91.70
2023-04-16T01:12:54.564Z,91.70
2023-04-16T01:15:21.221Z,91.70
2023-04-16T01:17:48.304Z,91.60
2023-04-16T01:20:14.995Z,91.50
2023-04-16T01:22:41.631Z,91.60
2023-04-16T01:25:08.428Z,91.70
2023-04-16T01:27:35.068Z,91.70
2023-04-16T01:30:01.735Z,91.70
2023-04-16T01:32:31.445Z,91.70
2023-04-16T01:34:58.120Z,91.80
2023-04-16T01:37:24.832Z,92.20
2023-04-16T01:39:51.517Z,92.60
2023-04-16T01:42:18.119Z,91.90
2023-04-16T01:44:46.827Z,91.60
2023-04-16T01:47:13.463Z,91.70
2023-04-16T01:49:40.691Z,91.80
2023-04-16T01:52:08.505Z,91.70
2023-04-16T01:54:35.221Z,91.60
2023-04-16T01:57:01.942Z,91.90
2023-04-16T01:59:28.621Z,91.70
2023-04-16T02:01:55.702Z,91.60
2023-04-16T02:04:22.385Z,91.50
2023-04-16T02:06:48.955Z,91.60
2023-04-16T02:09:15.652Z,91.50
2023-04-16T02:11:42.307Z,91.40
2023-04-16T02:14:09.048Z,91.50
2023-04-16T02:16:35.781Z,91.20
2023-04-16T02:19:03.331Z,91.40
2023-04-16T02:21:30.057Z,91.40
2023-04-16T02:23:57.473Z,91.60
2023-04-16T02:26:24.171Z,91.40
2023-04-16T02:28:51.036Z,91.40
2023-04-16T02:31:19.584Z,91.80
2023-04-16T02:33:46.362Z,92.00
2023-04-16T02:36:13.036Z,92.00
2023-04-16T02:38:39.746Z,92.00
2023-04-16T02:41:06.444Z,92.00
2023-04-16T02:43:33.076Z,92.20
2023-04-16T02:45:59.739Z,92.20
2023-04-16T02:48:26.490Z,92.30
2023-04-16T02:50:53.066Z,92.40
2023-04-16T02:53:19.662Z,92.30
2023-04-16T02:55:53.794Z,92.40
2023-04-16T02:58:21.637Z,92.30
2023-04-16T03:00:48.391Z,92.50
2023-04-16T03:03:15.145Z,92.40
2023-04-16T03:05:42.170Z,92.20
2023-04-16T03:08:09.122Z,92.20
2023-04-16T03:10:36.237Z,92.20
2023-04-16T03:13:03.553Z,92.30
2023-04-16T03:15:30.988Z,92.30
2023-04-16T03:17:57.975Z,92.30
2023-04-16T03:20:24.658Z,92.20
2023-04-16T03:22:54.541Z,92.20
2023-04-16T03:25:21.174Z,92.20
2023-04-16T03:27:47.834Z,92.00
2023-04-16T03:30:14.873Z,92.00
2023-04-16T03:32:41.930Z,92.60
2023-04-16T03:35:09.492Z,92.00
2023-04-16T03:37:36.278Z,92.10
2023-04-16T03:40:03.973Z,92.10
2023-04-16T03:42:30.728Z,92.00
2023-04-16T03:44:57.422Z,92.00
2023-04-16T03:47:24.183Z,91.70
2023-04-16T03:49:50.970Z,91.90
2023-04-16T03:52:17.603Z,92.10
2023-04-16T03:54:44.202Z,92.20
2023-04-16T03:57:10.876Z,92.40
2023-04-16T03:59:37.499Z,92.20
2023-04-16T04:02:04.228Z,92.40
2023-04-16T04:04:31.239Z,92.60
2023-04-16T04:06:57.964Z,92.70
2023-04-16T04:09:24.609Z,92.70
2023-04-16T04:11:51.270Z,92.70
2023-04-16T04:14:17.904Z,92.70
2023-04-16T04:16:44.921Z,92.60
2023-04-16T04:19:13.463Z,92.70
2023-04-16T04:21:40.347Z,92.70
2023-04-16T04:24:06.953Z,93.10
2023-04-16T04:26:33.633Z,92.90
2023-04-16T04:29:00.427Z,92.70
2023-04-16T04:31:27.206Z,92.80
2023-04-16T04:33:53.912Z,93.20
2023-04-16T04:36:20.552Z,92.90
2023-04-16T04:38:47.338Z,93.10
2023-04-16T04:41:13.985Z,93.10
2023-04-16T04:43:40.612Z,93.10
2023-04-16T04:46:07.279Z,93.30
2023-04-16T04:48:33.924Z,93.20
2023-04-16T04:51:02.440Z,93.10
2023-04-16T04:53:30.907Z,93.10
2023-04-16T04:56:08.945Z,93.20
2023-04-16T04:58:38.684Z,93.40
2023-04-16T05:01:05.949Z,93.70
2023-04-16T05:03:32.852Z,93.70
2023-04-16T05:05:59.602Z,93.80
2023-04-16T05:08:26.193Z,93.80
2023-04-16T05:10:52.824Z,93.80
2023-04-16T05:13:19.450Z,93.70
2023-04-16T05:15:46.134Z,94.10
2023-04-16T05:18:12.794Z,94.10
2023-04-16T05:20:39.390Z,94.10
2023-04-16T05:23:06.124Z,94.10
2023-04-16T05:25:32.868Z,93.90
2023-04-16T05:27:59.567Z,94.00
2023-04-16T05:30:26.200Z,94.00
2023-04-16T05:32:52.847Z,93.80
2023-04-16T05:35:19.552Z,94.00
2023-04-16T05:37:46.184Z,94.10
2023-04-16T05:40:14.052Z,94.00
2023-04-16T05:42:40.867Z,93.80
2023-04-16T05:45:08.150Z,93.80
2023-04-16T05:47:34.851Z,94.00
2023-04-16T05:50:01.532Z,93.90
2023-04-16T05:52:28.228Z,93.80
2023-04-16T05:54:55.114Z,93.80
2023-04-16T05:57:21.733Z,93.60
2023-04-16T05:59:48.384Z,93.80
2023-04-16T06:02:15.172Z,93.80
2023-04-16T06:04:41.910Z,93.90
2023-04-16T06:07:08.646Z,94.20
2023-04-16T06:09:35.961Z,94.10
2023-04-16T06:12:02.724Z,94.10
2023-04-16T06:14:29.383Z,93.90
2023-04-16T06:16:56.354Z,93.90
2023-04-16T06:19:23.037Z,93.90
2023-04-16T06:21:49.955Z,94.00
2023-04-16T06:24:18.358Z,93.80
2023-04-16T06:26:45.023Z,94.00
2023-04-16T06:29:11.965Z,93.90
2023-04-16T06:31:38.705Z,93.80
2023-04-16T06:34:05.306Z,93.80
2023-04-16T06:36:31.977Z,93.70
2023-04-16T06:38:58.654Z,93.70
2023-04-16T06:41:26.673Z,93.60
2023-04-16T06:43:53.350Z,93.60
2023-04-16T06:46:20.058Z,93.50
2023-04-16T06:48:47.027Z,93.50
2023-04-16T06:51:13.698Z,93.50
2023-04-16T06:53:40.498Z,93.50
2023-04-16T06:56:07.471Z,93.40
2023-04-16T06:58:34.193Z,93.50
2023-04-16T07:01:02.544Z,93.10
2023-04-16T07:03:29.356Z,93.30
2023-04-16T07:05:56.764Z,93.20
2023-04-16T07:08:23.417Z,93.30
2023-04-16T07:10:50.175Z,93.10
2023-04-16T07:13:18.498Z,93.20
2023-04-16T07:15:45.334Z,93.20
2023-04-16T07:18:11.978Z,93.20
2023-04-16T07:20:38.711Z,93.30
2023-04-16T07:23:05.373Z,93.30
2023-04-16T07:25:32.050Z,93.30
2023-04-16T07:27:58.780Z,93.10
2023-04-16T07:30:25.661Z,93.10
2023-04-16T07:32:52.359Z,92.90
2023-04-16T07:35:19.040Z,93.00
2023-04-16T07:37:45.676Z,93.00
2023-04-16T07:40:12.514Z,92.80
2023-04-16T07:42:39.267Z,92.80
2023-04-16T07:45:06.500Z,92.50
2023-04-16T07:47:33.223Z,93.00
2023-04-16T07:49:59.890Z,93.00
2023-04-16T07:52:26.761Z,93.00
2023-04-16T07:54:53.518Z,92.80
2023-04-16T07:57:21.092Z,92.70
2023-04-16T07:59:47.727Z,92.80
2023-04-16T08:02:16.461Z,92.70
2023-04-16T08:04:43.924Z,92.60
2023-04-16T08:07:10.796Z,92.20
2023-04-16T08:09:51.377Z,92.00
2023-04-16T08:12:18.198Z,92.10
2023-04-16T08:14:45.877Z,92.10
2023-04-16T08:17:13.230Z,91.80
2023-04-16T08:19:39.873Z,91.60
2023-04-16T08:22:06.702Z,91.90
2023-04-16T08:24:33.536Z,91.90
2023-04-16T08:27:08.134Z,91.90
2023-04-16T08:29:44.497Z,91.80
2023-04-16T08:32:11.559Z,91.80
2023-04-16T08:34:38.243Z,92.30
2023-04-16T08:37:04.919Z,91.80
2023-04-16T08:39:31.666Z,91.50
2023-04-16T08:41:58.978Z,91.50
2023-04-16T08:44:33.668Z,90.80
2023-04-16T08:47:01.028Z,91.10
2023-04-16T08:49:28.128Z,90.40
2023-04-16T08:51:56.317Z,90.70
2023-04-16T08:54:37.637Z,90.90
2023-04-16T08:57:06.742Z,91.10
2023-04-16T08:59:34.028Z,91.40
2023-04-16T09:02:01.870Z,91.20
2023-04-16T09:04:29.425Z,91.30
2023-04-16T09:06:57.394Z,90.80
2023-04-16T09:09:26.467Z,91.10
2023-04-16T09:11:53.743Z,91.10
2023-04-16T09:14:20.946Z,90.90
2023-04-16T09:16:48.340Z,90.80
2023-04-16T09:19:15.684Z,90.90
2023-04-16T09:21:45.572Z,91.00
2023-04-16T09:24:12.317Z,90.80
2023-04-16T09:26:39.020Z,90.80
2023-04-16T09:29:05.653Z,90.80
2023-04-16T09:31:32.410Z,90.40
2023-04-16T09:34:03.389Z,90.00
2023-04-16T09:36:31.221Z,89.90
2023-04-16T09:38:58.298Z,90.50
2023-04-16T09:41:30.318Z,90.40
2023-04-16T09:44:04.434Z,90.50
2023-04-16T09:46:34.364Z,90.50
2023-04-16T09:49:13.469Z,90.40
2023-04-16T09:51:45.095Z,90.60
2023-04-16T09:54:12.166Z,90.30
2023-04-16T09:56:43.181Z,90.40
2023-04-16T09:59:20.905Z,90.10
2023-04-16T10:01:49.516Z,89.60
2023-04-16T10:04:17.160Z,90.10
2023-04-16T10:06:44.124Z,90.10
2023-04-16T10:09:11.148Z,90.10
2023-04-16T10:11:38.219Z,90.20
2023-04-16T10:14:05.390Z,90.50
2023-04-16T10:16:33.021Z,90.30
2023-04-16T10:18:59.992Z,89.80
2023-04-16T10:21:33.841Z,90.00
2023-04-16T10:24:01.733Z,89.30
2023-04-16T10:26:30.539Z,90.00
2023-04-16T10:28:58.839Z,89.20
2023-04-16T10:31:26.979Z,89.00
2023-04-16T10:33:54.427Z,89.40
2023-04-16T10:36:26.423Z,89.70
2023-04-16T10:38:57.631Z,88.90
2023-04-16T10:41:26.642Z,88.70
2023-04-16T10:44:03.240Z,89.00
2023-04-16T10:46:40.956Z,89.50
2023-04-16T10:49:23.971Z,89.40
2023-04-16T10:51:58.389Z,89.50
2023-04-16T10:54:30.262Z,89.00
2023-04-16T10:56:57.851Z,90.00
2023-04-16T10:59:25.751Z,90.00
2023-04-16T11:01:55.715Z,89.60
2023-04-16T11:04:25.384Z,88.80
2023-04-16T11:07:16.477Z,87.90
2023-04-16T11:10:05.276Z,88.40
2023-04-16T11:12:39.939Z,89.00
2023-04-16T11:15:19.169Z,89.00
2023-04-16T11:17:52.065Z,87.90
2023-04-16T11:20:23.919Z,87.70
2023-04-16T11:22:51.581Z,87.50
2023-04-16T11:25:29.726Z,86.90
2023-04-16T11:27:58.895Z,86.40
2023-04-16T11:30:34.077Z,86.90
2023-04-16T11:33:09.540Z,85.80
2023-04-16T11:35:36.417Z,87.50
2023-04-16T11:38:03.027Z,86.90
2023-04-16T11:40:31.069Z,86.70
2023-04-16T11:43:12.854Z,87.10
2023-04-16T11:45:39.515Z,85.90
2023-04-16T11:48:06.804Z,85.80
2023-04-16T11:50:34.464Z,86.50
2023-04-16T11:53:05.419Z,84.20
2023-04-16T11:55:32.165Z,84.90
2023-04-16T11:58:12.131Z,85.30
2023-04-16T12:00:38.843Z,85.50
2023-04-16T12:03:05.650Z,85.20
2023-04-16T12:05:40.305Z,85.30
2023-04-16T12:08:09.535Z,85.50
2023-04-16T12:10:38.515Z,86.20
2023-04-16T12:13:15.006Z,85.70
2023-04-16T12:15:48.224Z,86.10
2023-04-16T12:18:18.565Z,85.70
2023-04-16T12:20:46.212Z,85.70
2023-04-16T12:23:33.375Z,85.80
2023-04-16T12:26:10.440Z,85.10
2023-04-16T12:28:38.492Z,83.50
2023-04-16T12:31:05.976Z,83.90
2023-04-16T12:33:32.824Z,84.10
2023-04-16T12:35:59.581Z,84.50
2023-04-16T12:38:27.158Z,84.70
2023-04-16T12:40:56.845Z,84.80
2023-04-16T12:43:24.036Z,85.10
2023-04-16T12:45:50.942Z,84.90
2023-04-16T12:48:17.591Z,83.90
2023-04-16T12:50:44.500Z,83.70
2023-04-16T12:53:11.766Z,84.20
2023-04-16T12:55:38.428Z,83.70
2023-04-16T12:58:05.086Z,84.00
2023-04-16T13:00:31.709Z,82.30
2023-04-16T13:02:58.541Z,83.30
2023-04-16T13:05:25.657Z,83.00
2023-04-16T13:07:52.408Z,83.10
2023-04-16T13:10:21.899Z,81.70
2023-04-16T13:12:48.954Z,81.10
2023-04-16T13:15:15.732Z,81.50
2023-04-16T13:17:42.374Z,81.00
2023-04-16T13:20:09.627Z,81.40
2023-04-16T13:22:36.385Z,81.70
2023-04-16T13:25:03.210Z,80.40
2023-04-16T13:27:32.001Z,80.90
2023-04-16T13:29:58.671Z,80.90
2023-04-16T13:32:25.462Z,80.70
2023-04-16T13:34:52.171Z,80.30
2023-04-16T13:37:18.820Z,79.90
2023-04-16T13:39:45.521Z,80.10
2023-04-16T13:42:12.119Z,80.60
2023-04-16T13:44:38.741Z,80.40
2023-04-16T13:47:05.504Z,80.50
2023-04-16T13:49:35.496Z,80.90
2023-04-16T13:52:02.502Z,81.50
2023-04-16T13:54:29.222Z,81.00
2023-04-16T13:56:56.011Z,81.40
2023-04-16T13:59:22.780Z,81.80
2023-04-16T14:01:49.538Z,81.50
2023-04-16T14:04:16.355Z,81.40
2023-04-16T14:06:43.068Z,81.60
2023-04-16T14:09:10.880Z,81.00
2023-04-16T14:11:37.869Z,81.40
2023-04-16T14:14:04.976Z,81.80
2023-04-16T14:16:31.659Z,81.10
2023-04-16T14:18:58.279Z,81.20
2023-04-16T14:21:24.953Z,80.90
2023-04-16T14:23:51.558Z,80.50
2023-04-16T14:26:18.203Z,80.20
2023-04-16T14:28:45.047Z,79.80
2023-04-16T14:31:11.695Z,80.30
2023-04-16T14:33:38.454Z,80.20
2023-04-16T14:36:05.596Z,79.80
2023-04-16T14:38:32.499Z,79.90
2023-04-16T14:41:00.342Z,80.50
2023-04-16T14:43:27.245Z,80.30
2023-04-16T14:45:53.948Z,80.40
2023-04-16T14:48:21.066Z,81.00
2023-04-16T14:50:47.696Z,81.20
2023-04-16T14:53:14.373Z,81.20
2023-04-16T14:55:41.037Z,81.10
2023-04-16T14:58:07.684Z,82.40
2023-04-16T15:00:37.523Z,81.80
2023-04-16T15:03:04.955Z,82.00
2023-04-16T15:05:31.960Z,81.10
2023-04-16T15:07:58.641Z,81.20
2023-04-16T15:10:25.244Z,80.80
2023-04-16T15:12:51.940Z,80.60
2023-04-16T15:15:18.655Z,80.90
2023-04-16T15:17:45.692Z,81.20
2023-04-16T15:20:12.988Z,80.60
2023-04-16T15:22:40.092Z,81.20
2023-04-16T15:25:07.202Z,80.20
2023-04-16T15:27:33.868Z,80.80
2023-04-16T15:30:00.848Z,81.10
2023-04-16T15:32:27.573Z,80.80
2023-04-16T15:34:54.220Z,81.20
2023-04-16T15:37:20.829Z,81.50
2023-04-16T15:39:47.578Z,81.50
2023-04-16T15:42:14.430Z,80.90
2023-04-16T15:44:41.139Z,81.20
2023-04-16T15:47:08.699Z,80.20
2023-04-16T15:49:36.019Z,80.80
2023-04-16T15:52:03.078Z,80.90
2023-04-16T15:54:30.944Z,80.80
2023-04-16T15:56:59.104Z,80.90
2023-04-16T15:59:29.049Z,80.80
2023-04-16T16:01:57.293Z,81.00
2023-04-16T16:04:26.242Z,80.30
2023-04-16T16:06:53.872Z,80.80
2023-04-16T16:09:25.753Z,80.70
2023-04-16T16:11:54.359Z,81.20
2023-04-16T16:14:22.008Z,80.90
2023-04-16T16:16:48.672Z,80.80
2023-04-16T16:19:15.320Z,81.20
2023-04-16T16:21:42.070Z,81.50
2023-04-16T16:24:09.406Z,81.30
2023-04-16T16:26:36.126Z,81.40
2023-04-16T16:29:02.836Z,81.20
2023-04-16T16:31:29.503Z,81.60
2023-04-16T16:33:56.214Z,81.00
2023-04-16T16:36:22.887Z,80.60
2023-04-16T16:38:49.540Z,81.30
2023-04-16T16:41:16.249Z,80.90
2023-04-16T16:43:43.097Z,81.30
2023-04-16T16:46:09.967Z,81.10
2023-04-16T16:48:36.725Z,80.80
2023-04-16T16:51:03.517Z,81.20
2023-04-16T16:53:30.115Z,80.70
2023-04-16T16:55:56.726Z,81.00
2023-04-16T16:58:23.328Z,81.40
2023-04-16T17:00:50.063Z,81.50
2023-04-16T17:03:17.044Z,81.70
2023-04-16T17:05:43.841Z,82.00
2023-04-16T17:08:10.637Z,82.20
2023-04-16T17:10:37.270Z,82.40
2023-04-16T17:13:03.866Z,81.80
2023-04-16T17:15:30.518Z,82.00
2023-04-16T17:17:57.285Z,82.50
2023-04-16T17:20:23.998Z,82.40
2023-04-16T17:22:51.213Z,82.70
2023-04-16T17:25:18.070Z,83.60
2023-04-16T17:27:44.718Z,82.40
2023-04-16T17:30:11.618Z,82.30
2023-04-16T17:32:38.279Z,82.40
2023-04-16T17:35:06.777Z,83.10
2023-04-16T17:37:33.502Z,82.60
2023-04-16T17:40:00.305Z,83.10
2023-04-16T17:42:26.963Z,83.20
2023-04-16T17:44:53.658Z,83.40
2023-04-16T17:47:20.444Z,83.80
2023-04-16T17:49:47.192Z,84.30
2023-04-16T17:52:13.881Z,85.20
2023-04-16T17:54:40.494Z,84.40
2023-04-16T17:57:07.136Z,84.60
2023-04-16T17:59:34.668Z,84.30
2023-04-16T18:02:01.438Z,84.70
2023-04-16T18:04:28.374Z,85.20
2023-04-16T18:06:55.199Z,84.90
2023-04-16T18:09:21.840Z,85.00
2023-04-16T18:11:48.570Z,85.10
2023-04-16T18:14:19.770Z,84.50
2023-04-16T18:16:47.822Z,84.60
2023-04-16T18:19:15.965Z,84.40
2023-04-16T18:21:43.281Z,84.70
2023-04-16T18:24:10.476Z,85.30
2023-04-16T18:26:37.665Z,85.50
2023-04-16T18:29:05.546Z,85.50
2023-04-16T18:31:32.416Z,85.40
2023-04-16T18:33:59.283Z,85.90
2023-04-16T18:36:26.806Z,85.80
2023-04-16T18:39:01.585Z,85.90
2023-04-16T18:41:29.981Z,85.20
2023-04-16T18:43:57.013Z,85.30
2023-04-16T18:46:23.727Z,85.20
2023-04-16T18:48:50.594Z,85.00
2023-04-16T18:51:17.271Z,85.40
2023-04-16T18:53:45.592Z,86.10
2023-04-16T18:56:12.833Z,85.90
2023-04-16T18:58:39.545Z,86.60
2023-04-16T19:01:10.905Z,86.40
2023-04-16T19:03:38.053Z,86.70
2023-04-16T19:06:05.823Z,86.60
2023-04-16T19:08:32.481Z,86.60
2023-04-16T19:10:59.248Z,86.70
2023-04-16T19:13:26.015Z,87.00
2023-04-16T19:15:59.244Z,87.80
2023-04-16T19:18:26.448Z,87.30
2023-04-16T19:20:59.751Z,87.70
2023-04-16T19:23:26.901Z,87.10
2023-04-16T19:25:53.636Z,87.20
2023-04-16T19:28:20.280Z,87.40
2023-04-16T19:30:50.768Z,87.10
2023-04-16T19:33:17.954Z,87.70
2023-04-16T19:35:44.877Z,87.90
2023-04-16T19:38:11.543Z,87.90
2023-04-16T19:40:38.554Z,87.40
2023-04-16T19:43:05.317Z,87.80
2023-04-16T19:45:32.069Z,87.90
2023-04-16T19:47:58.965Z,87.40
2023-04-16T19:50:25.602Z,87.10
2023-04-16T19:52:52.309Z,86.90
2023-04-16T19:55:19.148Z,87.50
2023-04-16T19:57:47.937Z,87.90
2023-04-16T20:00:14.936Z,88.00
2023-04-16T20:02:41.739Z,87.60
2023-04-16T20:05:09.104Z,87.40
2023-04-16T20:07:35.788Z,87.40
2023-04-16T20:10:02.938Z,87.60
2023-04-16T20:12:29.682Z,87.60
2023-04-16T20:14:56.342Z,87.90
2023-04-16T20:17:23.178Z,87.70
2023-04-16T20:19:51.101Z,87.90
2023-04-16T20:22:18.634Z,87.70
2023-04-16T20:24:47.885Z,87.50
2023-04-16T20:27:15.277Z,87.40
2023-04-16T20:29:42.337Z,87.50
2023-04-16T20:32:09.067Z,87.20
2023-04-16T20:34:36.711Z,87.20
2023-04-16T20:37:03.985Z,88.20
2023-04-16T20:39:34.205Z,88.70
2023-04-16T20:42:04.004Z,88.90
2023-04-16T20:44:40.395Z,89.40
2023-04-16T20:47:08.095Z,88.70
2023-04-16T20:49:34.819Z,89.10
2023-04-16T20:52:02.521Z,88.80
2023-04-16T20:54:29.933Z,89.50
2023-04-16T20:56:57.376Z,89.70
2023-04-16T20:59:25.269Z,89.60
2023-04-16T21:01:52.225Z,90.00
2023-04-16T21:04:19.098Z,90.10
2023-04-16T21:06:46.086Z,90.10
2023-04-16T21:09:13.301Z,90.00
2023-04-16T21:11:40.345Z,89.80
2023-04-16T21:14:07.054Z,89.50
2023-04-16T21:16:33.730Z,89.20
2023-04-16T21:19:00.436Z,89.00
2023-04-16T21:21:27.500Z,88.90
2023-04-16T21:23:54.217Z,88.50
2023-04-16T21:26:21.259Z,88.00
2023-04-16T21:28:48.197Z,87.80
2023-04-16T21:31:15.028Z,87.70
2023-04-16T21:33:41.785Z,88.30
2023-04-16T21:36:08.541Z,88.40
2023-04-16T21:38:35.301Z,87.90
2023-04-16T21:41:02.100Z,88.50
2023-04-16T21:43:32.469Z,88.60
2023-04-16T21:45:59.720Z,89.10
2023-04-16T21:48:27.012Z,89.50
2023-04-16T21:50:58.192Z,89.50
2023-04-16T21:53:25.901Z,89.10
2023-04-16T21:55:52.492Z,89.40
2023-04-16T21:58:19.086Z,89.20
2023-04-16T22:00:47.143Z,88.30
2023-04-16T22:03:14.179Z,88.60
2023-04-16T22:05:41.027Z,88.60
2023-04-16T22:08:23.630Z,88.80
2023-04-16T22:10:51.163Z,88.80
2023-04-16T22:13:17.957Z,89.70
2023-04-16T22:15:44.593Z,89.80
2023-04-16T22:18:11.432Z,90.00
2023-04-16T22:20:38.903Z,90.20
2023-04-16T22:23:06.517Z,90.20
2023-04-16T22:25:33.251Z,90.40
2023-04-16T22:28:01.459Z,90.00
2023-04-16T22:30:28.202Z,90.20
2023-04-16T22:32:55.072Z,90.10
2023-04-16T22:35:21.814Z,89.90
2023-04-16T22:37:48.408Z,89.70
2023-04-16T22:40:15.758Z,89.70
2023-04-16T22:42:42.685Z,89.50
2023-04-16T22:45:09.744Z,90.00
2023-04-16T22:47:36.506Z,90.10
2023-04-16T22:50:03.330Z,90.30
2023-04-16T22:52:30.031Z,90.20
2023-04-16T22:54:56.749Z,89.90
2023-04-16T22:57:25.571Z,90.00
2023-04-16T22:59:53.124Z,90.10
2023-04-16T23:02:20.630Z,90.00
2023-04-16T23:04:47.913Z,89.60
2023-04-16T23:07:15.454Z,89.90
2023-04-16T23:09:42.510Z,89.70
2023-04-16T23:12:09.279Z,89.50
2023-04-16T23:14:36.962Z,89.00
2023-04-16T23:17:03.764Z,88.80
2023-04-16T23:19:31.606Z,89.00
2023-04-16T23:21:58.475Z,89.50
2023-04-16T23:24:25.169Z,89.90
2023-04-16T23:26:52.438Z,90.20
2023-04-16T23:29:19.952Z,90.60
2023-04-16T23:31:46.746Z,90.40
2023-04-16T23:34:13.497Z,90.10
2023-04-16T23:36:40.744Z,90.10
2023-04-16T23:39:07.358Z,90.30
2023-04-16T23:41:34.402Z,90.20
2023-04-16T23:44:01.053Z,90.10
2023-04-16T23:46:27.768Z,90.10
2023-04-16T23:48:55.284Z,90.40
2023-04-16T23:51:22.161Z,90.30
2023-04-16T23:53:48.874Z,90.00
2023-04-16T23:56:15.871Z,90.80
2023-04-16T23:58:42.579Z,91.00
